createdAt,value
2015-10-25T00:00:11.992Z,40.93
2015-10-25T00:00:24.289Z,41.21
2015-10-25T00:00:36.601Z,41.31
2015-10-25T00:00:48.898Z,41.31
2015-10-25T00:01:01.199Z,41.4
2015-10-25T00:01:13.496Z,41.69
2015-10-25T00:01:25.808Z,41.78
2015-10-25T00:01:38.121Z,41.5
2015-10-25T00:01:50.449Z,41.69
2015-10-25T00:02:02.763Z,41.88
2015-10-25T00:02:15.060Z,41.5
2015-10-25T00:02:27.357Z,41.78
2015-10-25T00:02:39.654Z,41.88
2015-10-25T00:02:51.967Z,41.78
2015-10-25T00:03:04.266Z,41.88
2015-10-25T00:03:16.579Z,41.78
2015-10-25T00:03:28.907Z,41.88
2015-10-25T00:03:41.235Z,41.78
2015-10-25T00:03:53.551Z,41.78
2015-10-25T00:04:05.863Z,41.78
2015-10-25T00:04:18.160Z,41.88
2015-10-25T00:04:30.473Z,41.78
2015-10-25T00:04:42.769Z,41.59
2015-10-25T00:04:55.069Z,41.59
2015-10-25T00:05:07.366Z,41.97
2015-10-25T00:05:19.694Z,42.16
2015-10-25T00:05:32.022Z,42.07
2015-10-25T00:05:44.335Z,41.78
2015-10-25T00:05:56.634Z,42.07
2015-10-25T00:06:08.946Z,41.88
2015-10-25T00:06:21.243Z,41.88
2015-10-25T00:06:33.540Z,41.78
2015-10-25T00:06:45.837Z,41.69
2015-10-25T00:06:58.152Z,42.25
2015-10-25T00:07:10.465Z,41.69
2015-10-25T00:07:22.777Z,41.78
2015-10-25T00:07:35.106Z,41.78
2015-10-25T00:07:47.402Z,41.88
2015-10-25T00:07:59.702Z,41.78
2015-10-25T00:08:12.015Z,42.16
2015-10-25T00:08:24.312Z,41.97
2015-10-25T00:08:36.624Z,42.07
2015-10-25T00:08:48.921Z,42.25
2015-10-25T00:09:01.251Z,42.25
2015-10-25T00:09:13.579Z,42.25
2015-10-25T00:09:25.892Z,42.16
2015-10-25T00:09:38.204Z,42.54
2015-10-25T00:09:50.501Z,42.35
2015-10-25T00:10:02.801Z,42.54
2015-10-25T00:10:15.098Z,42.25
2015-10-25T00:10:27.410Z,42.35
2015-10-25T00:10:39.707Z,42.54
2015-10-25T00:10:52.020Z,42.44
2015-10-25T00:11:04.350Z,42.25
2015-10-25T00:11:16.678Z,42.35
2015-10-25T00:11:28.975Z,42.25
2015-10-25T00:11:41.272Z,42.54
2015-10-25T00:11:53.584Z,42.44
2015-10-25T00:12:05.885Z,42.73
2015-10-25T00:12:18.182Z,42.54
2015-10-25T00:12:30.495Z,42.82
2015-10-25T00:12:42.823Z,42.44
2015-10-25T00:12:55.166Z,42.63
2015-10-25T00:13:07.497Z,42.44
2015-10-25T00:13:19.793Z,42.63
2015-10-25T00:13:32.106Z,42.63
2015-10-25T00:13:44.403Z,42.54
2015-10-25T00:13:56.700Z,42.63
2015-10-25T00:14:09.015Z,42.82
2015-10-25T00:14:21.328Z,42.44
2015-10-25T00:14:33.656Z,42.54
2015-10-25T00:14:45.968Z,42.44
2015-10-25T00:14:58.265Z,42.25
2015-10-25T00:15:10.581Z,42.44
2015-10-25T00:15:22.878Z,42.25
2015-10-25T00:15:35.190Z,42.35
2015-10-25T00:15:47.487Z,42.44
2015-10-25T00:15:59.799Z,42.25
2015-10-25T00:16:12.114Z,42.35
2015-10-25T00:16:24.426Z,42.44
2015-10-25T00:16:36.755Z,42.54
2015-10-25T00:16:49.067Z,42.54
2015-10-25T00:17:01.364Z,42.25
2015-10-25T00:17:13.664Z,42.44
2015-10-25T00:17:25.961Z,42.44
2015-10-25T00:17:38.273Z,42.44
2015-10-25T00:17:50.570Z,42.44
2015-10-25T00:18:02.883Z,42.25
2015-10-25T00:18:15.229Z,42.44
2015-10-25T00:18:27.542Z,42.54
2015-10-25T00:18:39.854Z,42.35
2015-10-25T00:18:52.151Z,42.25
2015-10-25T00:19:04.464Z,42.44
2015-10-25T00:19:16.764Z,42.44
2015-10-25T00:19:29.060Z,42.44
2015-10-25T00:19:41.373Z,42.25
2015-10-25T00:19:53.685Z,42.25
2015-10-25T00:20:06.014Z,42.35
2015-10-25T00:20:18.329Z,42.35
2015-10-25T00:20:30.626Z,42.16
2015-10-25T00:20:42.923Z,42.73
2015-10-25T00:20:55.235Z,42.73
2015-10-25T00:21:07.532Z,42.82
2015-10-25T00:21:19.847Z,42.63
2015-10-25T00:21:32.159Z,42.54
2015-10-25T00:21:44.472Z,42.63
2015-10-25T00:21:56.800Z,42.73
2015-10-25T00:22:09.112Z,42.63
2015-10-25T00:22:21.412Z,42.35
2015-10-25T00:22:33.709Z,42.63
2015-10-25T00:22:46.006Z,42.63
2015-10-25T00:22:58.303Z,42.54
2015-10-25T00:23:10.615Z,42.54
2015-10-25T00:23:22.930Z,42.54
2015-10-25T00:23:35.242Z,42.54
2015-10-25T00:23:47.570Z,42.63
2015-10-25T00:23:59.883Z,42.82
2015-10-25T00:24:12.195Z,42.73
2015-10-25T00:24:24.496Z,42.63
2015-10-25T00:24:36.809Z,42.73
2015-10-25T00:24:49.121Z,42.54
2015-10-25T00:25:01.418Z,42.73
2015-10-25T00:25:13.731Z,42.73
2015-10-25T00:25:26.046Z,42.63
2015-10-25T00:25:38.374Z,42.63
2015-10-25T00:25:50.687Z,42.73
2015-10-25T00:26:02.984Z,42.63
2015-10-25T00:26:15.296Z,42.63
2015-10-25T00:26:27.594Z,42.54
2015-10-25T00:26:39.891Z,42.63
2015-10-25T00:26:52.188Z,42.54
2015-10-25T00:27:03.766Z,42.54
2015-10-25T00:27:16.094Z,42.54
2015-10-25T00:27:28.426Z,42.63
2015-10-25T00:27:40.739Z,42.54
2015-10-25T00:27:53.036Z,42.82
2015-10-25T00:28:05.332Z,42.82
2015-10-25T00:28:17.645Z,43.01
2015-10-25T00:28:29.945Z,42.92
2015-10-25T00:28:42.242Z,43.11
2015-10-25T00:28:54.554Z,43.01
2015-10-25T00:29:06.882Z,43.01
2015-10-25T00:29:19.351Z,43.11
2015-10-25T00:29:31.667Z,43.3
2015-10-25T00:29:43.963Z,43.11
2015-10-25T00:29:56.260Z,43.2
2015-10-25T00:30:08.557Z,43.01
2015-10-25T00:30:20.854Z,43.11
2015-10-25T00:30:33.153Z,43.01
2015-10-25T00:30:45.465Z,43.11
2015-10-25T00:30:57.794Z,43.01
2015-10-25T00:31:10.106Z,43.01
2015-10-25T00:31:22.419Z,43.01
2015-10-25T00:31:34.718Z,43.11
2015-10-25T00:31:47.031Z,43.39
2015-10-25T00:31:59.328Z,43.39
2015-10-25T00:32:11.640Z,43.39
2015-10-25T00:32:23.937Z,43.2
2015-10-25T00:32:36.252Z,43.3
2015-10-25T00:32:48.549Z,43.2
2015-10-25T00:33:00.845Z,43.39
2015-10-25T00:33:13.174Z,43.39
2015-10-25T00:33:25.455Z,43.3
2015-10-25T00:33:37.755Z,43.39
2015-10-25T00:33:50.067Z,43.3
2015-10-25T00:34:02.364Z,43.39
2015-10-25T00:34:14.677Z,43.39
2015-10-25T00:34:27.005Z,43.3
2015-10-25T00:34:39.320Z,43.11
2015-10-25T00:34:51.664Z,43.2
2015-10-25T00:35:03.961Z,43.01
2015-10-25T00:35:16.258Z,43.3
2015-10-25T00:35:28.570Z,43.11
2015-10-25T00:35:40.870Z,43.3
2015-10-25T00:35:53.183Z,43.39
2015-10-25T00:36:05.495Z,43.49
2015-10-25T00:36:17.808Z,43.58
2015-10-25T00:36:30.136Z,43.49
2015-10-25T00:36:42.451Z,43.49
2015-10-25T00:36:54.748Z,43.49
2015-10-25T00:37:07.045Z,43.39
2015-10-25T00:37:19.357Z,43.49
2015-10-25T00:37:31.654Z,43.39
2015-10-25T00:37:43.948Z,43.39
2015-10-25T00:37:56.261Z,43.49
2015-10-25T00:38:08.589Z,43.49
2015-10-25T00:38:20.917Z,43.3
2015-10-25T00:38:33.214Z,43.39
2015-10-25T00:38:45.500Z,43.39
2015-10-25T00:38:57.812Z,43.3
2015-10-25T00:39:10.109Z,43.49
2015-10-25T00:39:22.406Z,43.49
2015-10-25T00:39:34.703Z,43.3
2015-10-25T00:39:47.020Z,43.3
2015-10-25T00:39:59.332Z,43.49
2015-10-25T00:40:11.661Z,43.49
2015-10-25T00:40:23.957Z,43.39
2015-10-25T00:40:36.270Z,43.39
2015-10-25T00:40:48.555Z,43.39
2015-10-25T00:41:00.852Z,43.49
2015-10-25T00:41:13.164Z,43.39
2015-10-25T00:41:25.461Z,43.49
2015-10-25T00:41:37.789Z,43.39
2015-10-25T00:41:50.105Z,43.3
2015-10-25T00:42:02.418Z,43.68
2015-10-25T00:42:14.730Z,43.49
2015-10-25T00:42:27.027Z,43.58
2015-10-25T00:42:39.324Z,43.68
2015-10-25T00:42:51.631Z,43.58
2015-10-25T00:43:03.927Z,43.49
2015-10-25T00:43:16.240Z,43.58
2015-10-25T00:43:28.568Z,43.3
2015-10-25T00:43:40.896Z,43.49
2015-10-25T00:43:53.221Z,43.58
2015-10-25T00:44:05.518Z,43.3
2015-10-25T00:44:17.815Z,43.39
2015-10-25T00:44:30.112Z,43.39
2015-10-25T00:44:42.409Z,43.39
2015-10-25T00:44:54.704Z,43.49
2015-10-25T00:45:07.016Z,43.39
2015-10-25T00:45:19.344Z,43.68
2015-10-25T00:45:31.657Z,43.68
2015-10-25T00:45:43.985Z,43.77
2015-10-25T00:45:56.279Z,43.77
2015-10-25T00:46:08.576Z,43.68
2015-10-25T00:46:20.888Z,43.87
2015-10-25T00:46:33.185Z,43.77
2015-10-25T00:46:45.482Z,43.96
2015-10-25T00:46:57.792Z,43.77
2015-10-25T00:47:10.121Z,43.87
2015-10-25T00:47:22.449Z,43.77
2015-10-25T00:47:34.746Z,44.06
2015-10-25T00:47:47.042Z,43.96
2015-10-25T00:47:59.355Z,43.96
2015-10-25T00:48:11.652Z,44.06
2015-10-25T00:48:23.949Z,44.06
2015-10-25T00:48:36.261Z,44.06
2015-10-25T00:48:48.558Z,43.96
2015-10-25T00:49:00.887Z,43.96
2015-10-25T00:49:13.200Z,43.96
2015-10-25T00:49:25.512Z,43.96
2015-10-25T00:49:37.809Z,43.96
2015-10-25T00:49:50.107Z,44.06
2015-10-25T00:50:02.404Z,44.06
2015-10-25T00:50:14.716Z,44.15
2015-10-25T00:50:27.013Z,43.96
2015-10-25T00:50:39.326Z,44.06
2015-10-25T00:50:51.764Z,43.96
2015-10-25T00:51:04.077Z,44.06
2015-10-25T00:51:16.405Z,44.06
2015-10-25T00:51:28.702Z,44.06
2015-10-25T00:51:40.999Z,43.96
2015-10-25T00:51:53.312Z,43.96
2015-10-25T00:52:05.609Z,43.96
2015-10-25T00:52:17.906Z,43.96
2015-10-25T00:52:30.234Z,43.96
2015-10-25T00:52:42.562Z,43.96
2015-10-25T00:52:54.877Z,44.15
2015-10-25T00:53:07.189Z,44.15
2015-10-25T00:53:19.486Z,44.15
2015-10-25T00:53:31.783Z,43.96
2015-10-25T00:53:44.080Z,44.06
2015-10-25T00:53:56.394Z,43.87
2015-10-25T00:54:08.707Z,43.87
2015-10-25T00:54:21.019Z,43.96
2015-10-25T00:54:33.347Z,43.77
2015-10-25T00:54:45.675Z,43.68
2015-10-25T00:54:57.974Z,43.77
2015-10-25T00:55:10.287Z,43.77
2015-10-25T00:55:22.584Z,43.68
2015-10-25T00:55:34.881Z,43.68
2015-10-25T00:55:47.177Z,43.77
2015-10-25T00:55:59.492Z,43.87
2015-10-25T00:56:11.804Z,43.87
2015-10-25T00:56:24.117Z,43.77
2015-10-25T00:56:36.476Z,44.06
2015-10-25T00:56:48.789Z,43.96
2015-10-25T00:57:01.072Z,43.96
2015-10-25T00:57:13.369Z,44.06
2015-10-25T00:57:25.666Z,43.96
2015-10-25T00:57:37.963Z,44.15
2015-10-25T00:57:50.275Z,44.06
2015-10-25T00:58:02.574Z,43.96
2015-10-25T00:58:14.902Z,43.96
2015-10-25T00:58:27.230Z,44.15
2015-10-25T00:58:39.527Z,44.15
2015-10-25T00:58:51.824Z,44.15
2015-10-25T00:59:04.139Z,44.15
2015-10-25T00:59:16.435Z,44.24
2015-10-25T00:59:28.732Z,44.06
2015-10-25T00:59:41.029Z,44.15
2015-10-25T00:59:53.342Z,44.15
2015-10-25T01:00:05.673Z,44.24
2015-10-25T01:00:17.985Z,44.24
2015-10-25T01:00:30.282Z,44.24
2015-10-25T01:00:42.579Z,44.15
2015-10-25T01:00:54.892Z,44.15
2015-10-25T01:01:07.190Z,44.24
2015-10-25T01:01:19.487Z,44.15
2015-10-25T01:01:31.784Z,44.06
2015-10-25T01:01:44.112Z,44.24
2015-10-25T01:01:56.440Z,44.06
2015-10-25T01:02:08.755Z,44.06
2015-10-25T01:02:21.067Z,44.06
2015-10-25T01:02:33.380Z,44.06
2015-10-25T01:02:45.677Z,44.06
2015-10-25T01:02:57.974Z,44.06
2015-10-25T01:03:10.306Z,44.06
2015-10-25T01:03:22.618Z,44.15
2015-10-25T01:03:34.946Z,44.24
2015-10-25T01:03:47.275Z,44.43
2015-10-25T01:03:59.587Z,44.53
2015-10-25T01:04:11.886Z,44.53
2015-10-25T01:04:24.183Z,44.53
2015-10-25T01:04:36.495Z,44.62
2015-10-25T01:04:48.792Z,44.72
2015-10-25T01:05:01.089Z,44.62
2015-10-25T01:05:13.405Z,44.62
2015-10-25T01:05:25.717Z,44.62
2015-10-25T01:05:38.045Z,45.1
2015-10-25T01:05:50.358Z,44.62
2015-10-25T01:06:02.670Z,44.72
2015-10-25T01:06:14.969Z,44.81
2015-10-25T01:06:27.282Z,44.72
2015-10-25T01:06:39.578Z,44.62
2015-10-25T01:06:51.875Z,44.72
2015-10-25T01:07:04.172Z,44.91
2015-10-25T01:07:16.504Z,45
2015-10-25T01:07:28.817Z,44.91
2015-10-25T01:07:41.145Z,44.72
2015-10-25T01:07:53.426Z,44.81
2015-10-25T01:08:05.723Z,44.81
2015-10-25T01:08:18.022Z,44.72
2015-10-25T01:08:30.303Z,44.72
2015-10-25T01:08:42.600Z,44.72
2015-10-25T01:08:54.959Z,44.91
2015-10-25T01:09:07.256Z,45
2015-10-25T01:09:19.556Z,45.1
2015-10-25T01:09:31.853Z,45.29
2015-10-25T01:09:44.166Z,45
2015-10-25T01:09:56.462Z,45.1
2015-10-25T01:10:08.759Z,45.19
2015-10-25T01:10:21.075Z,45.1
2015-10-25T01:10:33.403Z,45.1
2015-10-25T01:10:45.715Z,45
2015-10-25T01:10:58.012Z,45.19
2015-10-25T01:11:10.309Z,45.1
2015-10-25T01:11:22.609Z,45.19
2015-10-25T01:11:34.906Z,45.48
2015-10-25T01:11:47.218Z,45.67
2015-10-25T01:11:59.515Z,45.38
2015-10-25T01:12:11.843Z,45.57
2015-10-25T01:12:24.174Z,45.48
2015-10-25T01:12:36.502Z,45.57
2015-10-25T01:12:48.814Z,45.57
2015-10-25T01:13:01.111Z,45.48
2015-10-25T01:13:13.424Z,45.45
2015-10-25T01:13:25.722Z,45.48
2015-10-25T01:13:38.019Z,45.67
2015-10-25T01:13:50.316Z,45.76
2015-10-25T01:14:02.644Z,45.67
2015-10-25T01:14:14.972Z,45.67
2015-10-25T01:14:27.289Z,45.67
2015-10-25T01:14:39.586Z,45.67
2015-10-25T01:14:51.898Z,45.57
2015-10-25T01:15:04.195Z,45.76
2015-10-25T01:15:16.492Z,45.76
2015-10-25T01:15:28.791Z,45.83
2015-10-25T01:15:41.088Z,45.86
2015-10-25T01:15:53.416Z,45.86
2015-10-25T01:16:05.728Z,45.86
2015-10-25T01:16:18.041Z,45.74
2015-10-25T01:16:30.341Z,45.67
2015-10-25T01:16:42.653Z,46.14
2015-10-25T01:16:54.950Z,46.04
2015-10-25T01:17:07.263Z,46.33
2015-10-25T01:17:19.591Z,46.42
2015-10-25T01:17:31.905Z,46.42
2015-10-25T01:17:44.218Z,45.95
2015-10-25T01:17:56.546Z,45.95
2015-10-25T01:18:08.858Z,45.93
2015-10-25T01:18:21.155Z,45.95
2015-10-25T01:18:33.456Z,45.83
2015-10-25T01:18:45.753Z,45.83
2015-10-25T01:18:58.050Z,45.83
2015-10-25T01:19:10.362Z,46.04
2015-10-25T01:19:22.659Z,45.95
2015-10-25T01:19:34.989Z,46.42
2015-10-25T01:19:47.302Z,46.33
2015-10-25T01:19:59.599Z,46.33
2015-10-25T01:20:11.927Z,46.42
2015-10-25T01:20:24.224Z,46.23
2015-10-25T01:20:36.524Z,46.21
2015-10-25T01:20:48.821Z,46.33
2015-10-25T01:21:01.133Z,46.42
2015-10-25T01:21:13.430Z,45.95
2015-10-25T01:21:25.758Z,45.83
2015-10-25T01:21:38.088Z,45.86
2015-10-25T01:21:50.401Z,45.86
2015-10-25T01:22:02.713Z,46.14
2015-10-25T01:22:15.010Z,46.52
2015-10-25T01:22:27.307Z,46.42
2015-10-25T01:22:39.623Z,46.52
2015-10-25T01:22:51.920Z,46.61
2015-10-25T01:23:04.233Z,46.61
2015-10-25T01:23:16.545Z,46.5
2015-10-25T01:23:28.858Z,46.31
2015-10-25T01:23:41.172Z,46.42
2015-10-25T01:23:53.469Z,46.42
2015-10-25T01:24:05.766Z,46.52
2015-10-25T01:24:18.063Z,46.33
2015-10-25T01:24:30.363Z,46.4
2015-10-25T01:24:42.675Z,46.52
2015-10-25T01:24:54.972Z,46.52
2015-10-25T01:25:07.300Z,46.4
2015-10-25T01:25:19.644Z,46.61
2015-10-25T01:25:31.944Z,46.71
2015-10-25T01:25:44.241Z,46.61
2015-10-25T01:25:56.553Z,46.61
2015-10-25T01:26:08.850Z,46.71
2015-10-25T01:26:21.163Z,46.61
2015-10-25T01:26:33.462Z,46.8
2015-10-25T01:26:45.790Z,46.9
2015-10-25T01:26:58.118Z,47.18
2015-10-25T01:27:10.446Z,47.37
2015-10-25T01:27:22.790Z,47.91
2015-10-25T01:27:35.090Z,47.91
2015-10-25T01:27:47.386Z,48.13
2015-10-25T01:27:59.699Z,47.85
2015-10-25T01:28:11.996Z,47.63
2015-10-25T01:28:24.308Z,47.66
2015-10-25T01:28:36.655Z,47.37
2015-10-25T01:28:48.983Z,47.85
2015-10-25T01:29:01.280Z,47.66
2015-10-25T01:29:13.577Z,47.94
2015-10-25T01:29:25.874Z,48.13
2015-10-25T01:29:38.188Z,48.1
2015-10-25T01:29:50.485Z,47.75
2015-10-25T01:30:02.782Z,47.53
2015-10-25T01:30:15.095Z,48.01
2015-10-25T01:30:27.423Z,48.03
2015-10-25T01:30:39.738Z,48.03
2015-10-25T01:30:52.035Z,48.03
2015-10-25T01:31:04.176Z,48.13
2015-10-25T01:31:16.488Z,48.22
2015-10-25T01:31:28.785Z,48.22
2015-10-25T01:31:41.085Z,48.32
2015-10-25T01:31:53.382Z,48.22
2015-10-25T01:32:05.710Z,48.22
2015-10-25T01:32:18.038Z,48.7
2015-10-25T01:32:30.351Z,48.6
2015-10-25T01:32:42.650Z,48.77
2015-10-25T01:32:54.963Z,48.41
2015-10-25T01:33:07.260Z,48.6
2015-10-25T01:33:19.557Z,48.6
2015-10-25T01:33:31.869Z,48.41
2015-10-25T01:33:44.169Z,48.13
2015-10-25T01:33:56.497Z,47.94
2015-10-25T01:34:08.825Z,47.91
2015-10-25T01:34:21.122Z,47.94
2015-10-25T01:34:33.450Z,48.01
2015-10-25T01:34:45.750Z,47.56
2015-10-25T01:34:58.047Z,47.75
2015-10-25T01:35:10.203Z,47.72
2015-10-25T01:35:22.500Z,48.03
2015-10-25T01:35:34.797Z,47.82
2015-10-25T01:35:47.127Z,47.94
2015-10-25T01:35:59.283Z,48.2
2015-10-25T01:36:11.612Z,48.22
2015-10-25T01:36:23.924Z,48.32
2015-10-25T01:36:36.221Z,48.6
2015-10-25T01:36:48.521Z,48.7
2015-10-25T01:37:00.818Z,48.51
2015-10-25T01:37:13.130Z,48.41
2015-10-25T01:37:25.427Z,48.79
2015-10-25T01:37:37.740Z,48.7
2015-10-25T01:37:50.071Z,48.89
2015-10-25T01:38:02.399Z,48.6
2015-10-25T01:38:14.696Z,48.7
2015-10-25T01:38:27.008Z,48.68
2015-10-25T01:38:39.305Z,48.58
2015-10-25T01:38:51.604Z,48.68
2015-10-25T01:39:03.745Z,48.98
2015-10-25T01:39:16.057Z,48.6
2015-10-25T01:39:28.370Z,48.49
2015-10-25T01:39:40.682Z,48.49
2015-10-25T01:39:53.013Z,48.58
2015-10-25T01:40:05.310Z,48.6
2015-10-25T01:40:17.607Z,48.51
2015-10-25T01:40:29.919Z,48.7
2015-10-25T01:40:42.216Z,48.79
2015-10-25T01:40:54.516Z,48.79
2015-10-25T01:41:06.813Z,48.79
2015-10-25T01:41:19.126Z,48.79
2015-10-25T01:41:31.454Z,48.6
2015-10-25T01:41:43.766Z,48.6
2015-10-25T01:41:56.081Z,48.6
2015-10-25T01:42:08.378Z,48.6
2015-10-25T01:42:20.690Z,48.7
2015-10-25T01:42:32.987Z,48.13
2015-10-25T01:42:45.268Z,48.7
2015-10-25T01:42:57.568Z,48.22
2015-10-25T01:43:09.865Z,48.39
2015-10-25T01:43:22.146Z,48.32
2015-10-25T01:43:34.474Z,48.32
2015-10-25T01:43:46.787Z,48.2
2015-10-25T01:43:59.070Z,48.32
2015-10-25T01:44:11.383Z,48.22
2015-10-25T01:44:23.664Z,48.51
2015-10-25T01:44:35.976Z,48.89
2015-10-25T01:44:48.273Z,48.6
2015-10-25T01:45:00.590Z,48.86
2015-10-25T01:45:12.918Z,48.7
2015-10-25T01:45:25.246Z,48.7
2015-10-25T01:45:37.558Z,48.86
2015-10-25T01:45:49.855Z,48.58
2015-10-25T01:46:02.154Z,48.7
2015-10-25T01:46:14.451Z,48.2
2015-10-25T01:46:26.764Z,48.22
2015-10-25T01:46:39.076Z,48.22
2015-10-25T01:46:51.389Z,48.32
2015-10-25T01:47:03.720Z,48.2
2015-10-25T01:47:16.032Z,48.22
2015-10-25T01:47:28.329Z,48.22
2015-10-25T01:47:40.626Z,48.22
2015-10-25T01:47:52.938Z,48.7
2015-10-25T01:48:05.238Z,48.51
2015-10-25T01:48:17.535Z,48.49
2015-10-25T01:48:29.848Z,48.49
2015-10-25T01:48:42.160Z,48.77
2015-10-25T01:48:54.488Z,48.58
2015-10-25T01:49:06.787Z,48.58
2015-10-25T01:49:19.100Z,48.7
2015-10-25T01:49:31.397Z,48.96
2015-10-25T01:49:43.709Z,49.05
2015-10-25T01:49:56.006Z,49.08
2015-10-25T01:50:08.322Z,49.08
2015-10-25T01:50:20.635Z,49.05
2015-10-25T01:50:32.947Z,49.27
2015-10-25T01:50:45.276Z,49.43
2015-10-25T01:50:57.572Z,49.84
2015-10-25T01:51:09.871Z,49.9
2015-10-25T01:51:22.168Z,50.02
2015-10-25T01:51:34.481Z,50.19
2015-10-25T01:51:46.778Z,50.38
2015-10-25T01:51:59.074Z,50.31
2015-10-25T01:52:11.390Z,50.28
2015-10-25T01:52:23.718Z,50.38
2015-10-25T01:52:36.046Z,50.57
2015-10-25T01:52:48.359Z,50.38
2015-10-25T01:53:00.656Z,50.97
2015-10-25T01:53:12.955Z,50.85
2015-10-25T01:53:25.268Z,51.23
2015-10-25T01:53:37.565Z,51.23
2015-10-25T01:53:49.877Z,51.51
2015-10-25T01:54:02.190Z,51.23
2015-10-25T01:54:14.521Z,51.32
2015-10-25T01:54:26.849Z,51.51
2015-10-25T01:54:39.146Z,51.51
2015-10-25T01:54:51.443Z,51.04
2015-10-25T01:55:03.755Z,51.61
2015-10-25T01:55:16.054Z,51.61
2015-10-25T01:55:28.367Z,51.64
2015-10-25T01:55:40.664Z,51.42
2015-10-25T01:55:52.976Z,51.23
2015-10-25T01:56:05.304Z,51.32
2015-10-25T01:56:17.634Z,51.23
2015-10-25T01:56:29.931Z,51.16
2015-10-25T01:56:42.244Z,51.7
2015-10-25T01:56:54.541Z,51.42
2015-10-25T01:57:06.837Z,51.23
2015-10-25T01:57:19.138Z,51.89
2015-10-25T01:57:31.451Z,51.8
2015-10-25T01:57:43.763Z,52.08
2015-10-25T01:57:56.076Z,51.89
2015-10-25T01:58:08.404Z,52.08
2015-10-25T01:58:20.704Z,52.27
2015-10-25T01:58:33.016Z,52.27
2015-10-25T01:58:45.313Z,52.37
2015-10-25T01:58:57.610Z,52.08
2015-10-25T01:59:09.907Z,52.18
2015-10-25T01:59:22.206Z,52.18
2015-10-25T01:59:34.534Z,52.18
2015-10-25T01:59:46.862Z,51.99
2015-10-25T01:59:59.159Z,51.99
2015-10-25T02:00:11.456Z,51.89
2015-10-25T02:00:23.771Z,52.08
2015-10-25T02:00:36.068Z,51.7
2015-10-25T02:00:48.365Z,51.89
2015-10-25T02:01:00.599Z,51.8
2015-10-25T02:01:12.915Z,51.14
2015-10-25T02:01:25.212Z,51.04
2015-10-25T02:01:37.540Z,51.23
2015-10-25T02:01:49.852Z,50.95
2015-10-25T02:02:02.149Z,50.66
2015-10-25T02:02:14.464Z,50.38
2015-10-25T02:02:26.776Z,50.38
2015-10-25T02:02:39.073Z,50.19
2015-10-25T02:02:51.386Z,50.47
2015-10-25T02:03:03.714Z,50.19
2015-10-25T02:03:16.045Z,50.19
2015-10-25T02:03:28.373Z,50.19
2015-10-25T02:03:40.701Z,50.28
2015-10-25T02:03:53.045Z,50.19
2015-10-25T02:04:05.389Z,50.28
2015-10-25T02:04:17.689Z,50.47
2015-10-25T02:04:29.985Z,50.28
2015-10-25T02:04:42.298Z,50.76
2015-10-25T02:04:54.595Z,51.04
2015-10-25T02:05:06.907Z,51.23
2015-10-25T02:05:19.206Z,51.51
2015-10-25T02:05:31.519Z,51.14
2015-10-25T02:05:43.816Z,51.14
2015-10-25T02:05:56.128Z,51.32
2015-10-25T02:06:08.425Z,51.23
2015-10-25T02:06:20.725Z,51.42
2015-10-25T02:06:33.037Z,51.23
2015-10-25T02:06:45.365Z,51.14
2015-10-25T02:06:57.678Z,51.23
2015-10-25T02:07:10.006Z,51.14
2015-10-25T02:07:22.322Z,51.23
2015-10-25T02:07:34.665Z,51.23
2015-10-25T02:07:46.993Z,51.51
2015-10-25T02:07:59.322Z,51.14
2015-10-25T02:08:11.665Z,51.14
2015-10-25T02:08:23.964Z,51.23
2015-10-25T02:08:36.261Z,51.32
2015-10-25T02:08:48.558Z,51.23
2015-10-25T02:09:00.855Z,51.14
2015-10-25T02:09:13.167Z,51.23
2015-10-25T02:09:25.468Z,51.32
2015-10-25T02:09:37.765Z,51.61
2015-10-25T02:09:50.093Z,51.04
2015-10-25T02:10:02.390Z,51.23
2015-10-25T02:10:14.687Z,51.14
2015-10-25T02:10:26.987Z,51.04
2015-10-25T02:10:39.284Z,51.04
2015-10-25T02:10:51.627Z,51.14
2015-10-25T02:11:03.940Z,51.23
2015-10-25T02:11:16.252Z,51.32
2015-10-25T02:11:28.567Z,51.51
2015-10-25T02:11:40.911Z,51.23
2015-10-25T02:11:53.208Z,51.32
2015-10-25T02:12:05.504Z,51.32
2015-10-25T02:12:17.801Z,51.51
2015-10-25T02:12:30.117Z,51.32
2015-10-25T02:12:42.414Z,51.32
2015-10-25T02:12:54.711Z,51.32
2015-10-25T02:13:07.007Z,51.32
2015-10-25T02:13:19.304Z,51.23
2015-10-25T02:13:31.634Z,51.23
2015-10-25T02:13:43.947Z,51.23
2015-10-25T02:13:56.259Z,51.14
2015-10-25T02:14:08.603Z,51.14
2015-10-25T02:14:20.931Z,51.23
2015-10-25T02:14:33.262Z,51.14
2015-10-25T02:14:45.419Z,51.32
2015-10-25T02:14:57.716Z,51.42
2015-10-25T02:15:10.012Z,51.23
2015-10-25T02:15:22.325Z,51.14
2015-10-25T02:15:34.640Z,51.23
2015-10-25T02:15:46.937Z,51.23
2015-10-25T02:15:59.234Z,51.32
2015-10-25T02:16:11.531Z,51.23
2015-10-25T02:16:23.859Z,51.14
2015-10-25T02:16:36.159Z,51.14
2015-10-25T02:16:48.456Z,51.04
2015-10-25T02:17:00.753Z,51.32
2015-10-25T02:17:13.065Z,51.23
2015-10-25T02:17:25.378Z,51.42
2015-10-25T02:17:37.677Z,51.23
2015-10-25T02:17:49.989Z,51.04
2015-10-25T02:18:02.302Z,51.04
2015-10-25T02:18:14.614Z,51.14
2015-10-25T02:18:26.911Z,51.14
2015-10-25T02:18:39.212Z,51.51
2015-10-25T02:18:51.493Z,51.23
2015-10-25T02:19:03.790Z,51.42
2015-10-25T02:19:16.118Z,51.23
2015-10-25T02:19:28.415Z,51.32
2015-10-25T02:19:40.714Z,51.23
2015-10-25T02:19:53.026Z,51.14
2015-10-25T02:20:05.339Z,51.23
2015-10-25T02:20:17.651Z,51.23
2015-10-25T02:20:29.964Z,51.14
2015-10-25T02:20:42.279Z,51.32
2015-10-25T02:20:54.608Z,51.23
2015-10-25T02:21:06.936Z,51.23
2015-10-25T02:21:19.279Z,51.14
2015-10-25T02:21:31.623Z,51.23
2015-10-25T02:21:43.953Z,51.42
2015-10-25T02:21:56.250Z,51.8
2015-10-25T02:22:08.547Z,51.8
2015-10-25T02:22:20.844Z,52.18
2015-10-25T02:22:33.156Z,51.99
2015-10-25T02:22:45.456Z,51.99
2015-10-25T02:22:57.753Z,52.08
2015-10-25T02:23:10.050Z,51.99
2015-10-25T02:23:22.378Z,51.99
2015-10-25T02:23:34.691Z,51.99
2015-10-25T02:23:47.006Z,52.08
2015-10-25T02:23:59.303Z,52.18
2015-10-25T02:24:11.631Z,52.18
2015-10-25T02:24:23.975Z,51.7
2015-10-25T02:24:36.303Z,52.27
2015-10-25T02:24:48.634Z,52.08
2015-10-25T02:25:00.994Z,51.99
2015-10-25T02:25:13.337Z,51.99
2015-10-25T02:25:25.712Z,52.08
2015-10-25T02:25:38.009Z,52.18
2015-10-25T02:25:50.308Z,52.27
2015-10-25T02:26:02.605Z,52.18
2015-10-25T02:26:14.902Z,51.61
2015-10-25T02:26:27.199Z,52.18
2015-10-25T02:26:39.511Z,52.18
2015-10-25T02:26:51.811Z,52.08
2015-10-25T02:27:04.108Z,51.99
2015-10-25T02:27:16.405Z,51.89
2015-10-25T02:27:28.702Z,51.99
2015-10-25T02:27:41.014Z,51.99
2015-10-25T02:27:53.330Z,51.99
2015-10-25T02:28:05.642Z,52.27
2015-10-25T02:28:17.970Z,52.37
2015-10-25T02:28:30.283Z,52.27
2015-10-25T02:28:42.611Z,52.08
2015-10-25T02:28:54.926Z,51.99
2015-10-25T02:29:07.255Z,52.08
2015-10-25T02:29:19.567Z,52.08
2015-10-25T02:29:31.864Z,52.08
2015-10-25T02:29:44.161Z,52.08
2015-10-25T02:29:56.460Z,51.89
2015-10-25T02:30:08.819Z,51.99
2015-10-25T02:30:21.116Z,52.27
2015-10-25T02:30:33.413Z,52.46
2015-10-25T02:30:45.725Z,52.75
2015-10-25T02:30:58.041Z,52.84
2015-10-25T02:31:10.353Z,52.84
2015-10-25T02:31:22.666Z,53.31
2015-10-25T02:31:34.978Z,53.97
2015-10-25T02:31:47.322Z,54.26
2015-10-25T02:31:59.653Z,54.07
2015-10-25T02:32:11.981Z,54.45
2015-10-25T02:32:24.325Z,54.35
2015-10-25T02:32:36.684Z,54.45
2015-10-25T02:32:48.981Z,54.55
2015-10-25T02:33:01.280Z,54.83
2015-10-25T02:33:13.577Z,55.11
2015-10-25T02:33:25.874Z,55.18
2015-10-25T02:33:38.186Z,55.49
2015-10-25T02:33:50.483Z,55.58
2015-10-25T02:34:02.783Z,55.77
2015-10-25T02:34:15.080Z,55.96
2015-10-25T02:34:27.408Z,56.22
2015-10-25T02:34:39.705Z,56.53
2015-10-25T02:34:52.002Z,56.15
2015-10-25T02:35:04.302Z,56.72
2015-10-25T02:35:16.630Z,57.26
2015-10-25T02:35:28.958Z,57.17
2015-10-25T02:35:41.271Z,56.98
2015-10-25T02:35:53.583Z,57.29
2015-10-25T02:36:05.914Z,57.35
2015-10-25T02:36:18.242Z,57.26
2015-10-25T02:36:30.570Z,57.17
2015-10-25T02:36:42.945Z,57.45
2015-10-25T02:36:55.242Z,57.92
2015-10-25T02:37:07.541Z,58.11
2015-10-25T02:37:19.838Z,58.59
2015-10-25T02:37:32.151Z,59.06
2015-10-25T02:37:44.447Z,59.44
2015-10-25T02:37:56.760Z,59.63
2015-10-25T02:38:09.060Z,59.44
2015-10-25T02:38:21.357Z,59.53
2015-10-25T02:38:33.669Z,60
2015-10-25T02:38:45.982Z,60.1
2015-10-25T02:38:58.279Z,60.19
2015-10-25T02:39:10.578Z,60.1